WEATHER DATA

YESTERDAY
Time Temp. Dewp. Hum. Bar. 1h Prec. 24h Prec.
00:08 4.4 3.2 92 1011.5 0.0000 0.0000
00:19 4.4 3.2 92 1011.6 0.0000 0.0000
00:27 4.4 3.2 92 1011.3 0.0000 0.0000
00:39 4.4 3.2 92 1011.2 0.0000 0.0000
00:49 4.4 3.2 92 1011.2 0.0000 0.0000
00:59 4.4 3.2 92 1011.2 0.0000 0.0000
01:09 4.4 3.2 92 1011.1 0.0000 0.0000
01:19 4.5 3.3 92 1011.1 0.0000 0.0000
01:27 4.5 3.3 92 1011 0.0000 0.0000
01:40 4.5 3.3 92 1011 0.0000 0.0000
01:47 4.5 3.3 92 1011 0.0000 0.0000
02:00 4.5 3.3 92 1011 0.1010 0.1000
02:09 4.5 3.3 92 1010.9 0.1010 0.1000
02:20 4.5 3.3 92 1011 0.1010 0.1000
02:30 4.5 3.3 92 1010.9 0.1010 0.1000
02:40 4.5 3.3 92 1010.9 0.1010 0.1000
02:50 4.5 3.3 92 1010.8 0.1010 0.2000
02:59 4.5 3.3 92 1010.7 0.1010 0.2000
03:10 4.5 3.3 92 1010.8 0.1010 0.2000
03:20 4.6 3.4 92 1010.7 0.1010 0.2000
03:31 4.6 3.4 92 1010.7 0.1010 0.2000
03:40 4.6 3.4 92 1010.7 0.2020 0.3000
03:51 4.6 3.4 92 1010.8 0.1010 0.3000
04:01 4.6 3.4 92 1010.8 0.1010 0.3000
04:11 4.6 3.4 92 1010.8 0.2020 0.4000
04:21 4.6 3.4 92 1010.8 0.2020 0.4000
04:31 4.6 3.4 92 1010.8 0.2020 0.4000
04:40 4.6 3.4 92 1010.8 0.1010 0.4000
04:49 4.7 3.5 92 1010.7 0.1010 0.4000
05:01 4.7 3.5 92 1010.8 0.2020 0.5000
05:12 4.7 3.5 92 1010.7 0.2020 0.6000
05:21 4.7 3.5 92 1010.6 0.3030 0.7000
05:31 4.7 3.5 92 1010.6 0.3030 0.7000
05:41 4.7 3.5 92 1010.5 0.3030 0.7000
05:50 4.7 3.5 92 1010.5 0.3030 0.8000
06:01 4.7 3.5 92 1010.4 0.3030 0.9000
06:11 4.7 3.5 92 1010.3 0.4040 1.0000
06:21 4.7 3.5 92 1010.4 0.3030 1.0000
06:31 4.7 3.5 92 1010.3 0.3030 1.0000
06:41 4.7 3.5 92 1010.4 0.3030 1.1000
06:52 4.8 3.6 92 1010.4 0.2020 1.1000
07:02 4.8 3.6 92 1010.4 0.3030 1.2000
07:11 4.8 3.6 92 1010.3 0.2020 1.2000
07:22 4.8 3.6 92 1010.2 0.3030 1.3000
07:32 4.8 3.6 92 1010.2 0.3030 1.4000
07:42 4.8 3.6 92 1010.2 0.4040 1.5000
07:52 4.8 3.6 92 1010.1 0.4040 1.6000
08:02 4.8 3.6 92 1010.1 0.4040 1.6000
08:12 4.8 3.8 93 1010 0.3030 1.6000
08:22 4.8 3.8 93 1010.1 0.3030 1.6000
08:32 4.9 3.9 93 1010.2 0.2020 1.6000
08:42 4.9 3.9 93 1010.2 0.1010 1.6000
08:52 5 4 93 1010.2 0.0000 1.6000
09:02 5.1 4.1 93 1010.3 0.0000 1.6000
09:13 5.2 4.2 93 1010.3 0.0000 1.6000
09:23 5.3 4.3 93 1010.4 0.0000 1.6000
09:33 5.3 4.3 93 1010.4 0.0000 1.6000
09:43 5.4 4.4 93 1010.5 0.0000 1.6000
09:53 5.5 4.5 93 1010.4 0.0000 1.6000
10:03 5.5 4.5 93 1010.3 0.0000 1.6000
10:13 5.5 4.5 93 1010.4 0.0000 1.6000
10:24 5.6 4.6 93 1010.5 0.0000 1.6000
10:33 5.7 4.7 93 1010.4 0.0000 1.6000
10:43 5.8 4.8 93 1010.4 0.0000 1.6000
10:53 5.8 4.8 93 1010.3 0.0000 1.6000
11:04 5.9 4.9 93 1010.3 0.0000 1.6000
11:14 6 5 93 1010.3 0.0000 1.6000
11:23 6 5 93 1010.3 0.0000 1.6000
11:34 6.1 5.1 93 1010.3 0.0000 1.6000
11:44 6.1 5.1 93 1010.3 0.0000 1.6000
11:54 6.1 5.1 93 1010.4 0.0000 1.6000
12:04 6.1 4.9 92 1010.4 0.0000 1.6000
12:14 6.1 4.9 92 1010.3 0.0000 1.6000
12:24 6.2 5 92 1010.3 0.0000 1.6000
12:34 6.2 5 92 1010.3 0.0000 1.6000
12:45 6.2 5 92 1010.2 0.0000 1.6000
12:55 6.2 5 92 1010.1 0.0000 1.6000
13:05 6.2 5 92 1010.2 0.0000 1.6000
13:14 6.2 4.8 91 1010.1 0.0000 1.6000
13:25 6.2 4.8 91 1010 0.0000 1.6000
13:35 6.2 4.8 91 1009.9 0.0000 1.6000
13:45 6.3 4.9 91 1009.9 0.0000 1.6000
13:55 6.2 4.8 91 1009.9 0.0000 1.6000
14:05 6.2 4.8 91 1009.8 0.0000 1.6000
14:15 6.2 4.8 91 1009.7 0.0000 1.6000
14:25 6.2 4.8 91 1009.7 0.0000 1.6000
14:36 6.2 4.8 91 1009.6 0.0000 1.6000
14:46 6.2 4.8 91 1009.4 0.0000 1.6000
14:55 6.2 4.8 91 1009.4 0.0000 1.6000
15:06 6.2 4.8 91 1009.4 0.0000 1.6000
15:16 6.2 4.8 91 1009.4 0.0000 1.6000
15:26 6.2 4.8 91 1009.3 0.0000 1.6000
15:36 6.2 4.7 90 1009.3 0.0000 1.6000
15:46 6.2 4.7 90 1009.2 0.0000 1.6000
15:56 6.2 4.7 90 1009.3 0.0000 1.6000
16:06 6.2 4.7 90 1009.2 0.0000 1.6000
16:16 6.1 4.6 90 1009.2 0.0000 1.6000
16:27 6.1 4.6 90 1009.1 0.0000 1.6000
16:36 6.1 4.6 90 1009.2 0.0000 1.6000
16:46 6 4.5 90 1009.1 0.0000 1.6000
16:57 6 4.5 90 1009.1 0.0000 1.6000
17:07 6 4.5 90 1009.1 0.0000 1.6000
17:17 5.9 4.4 90 1009 0.0000 1.6000
17:27 5.9 4.4 90 1008.9 0.0000 1.6000
17:37 5.8 4.3 90 1008.9 0.0000 1.6000
17:47 5.8 4.3 90 1008.8 0.0000 1.6000
17:57 5.7 4.2 90 1008.8 0.0000 1.6000
18:08 5.7 4.2 90 1008.7 0.0000 1.6000
18:17 5.7 4.2 90 1008.7 0.0000 1.6000
18:27 5.6 4.1 90 1008.7 0.0000 1.6000
18:37 5.6 4.1 90 1008.6 0.0000 1.6000
18:48 5.5 4 90 1008.4 0.0000 1.6000
18:57 5.5 4 90 1008.5 0.0000 1.6000
19:07 5.5 4 90 1008.3 0.0000 1.6000
19:18 5.5 4 90 1008 0.0000 1.6000
19:28 5.4 4.1 91 1008 0.0000 1.6000
19:38 5.4 4.1 91 1008 0.0000 1.6000
19:48 5.4 3.9 90 1007.9 0.0000 1.6000
19:58 5.3 3.8 90 1007.8 0.0000 1.6000
20:08 5.3 3.8 90 1007.6 0.0000 1.6000
20:17 5.2 3.7 90 1007.5 0.0000 1.6000
20:29 5.2 3.7 90 1007.5 0.0000 1.6000
20:38 5.2 3.7 90 1007.3 0.0000 1.6000
20:48 5.2 3.7 90 1007.2 0.0000 1.6000
20:58 5.1 3.6 90 1007.1 0.0000 1.6000
21:09 5.1 3.6 90 1007 0.0000 1.6000
21:19 5.1 3.6 90 1006.8 0.0000 1.6000
21:28 5.1 3.6 90 1006.8 0.0000 1.6000
21:39 5.1 3.6 90 1006.9 0.0000 1.6000
21:49 5.1 3.6 90 1006.8 0.0000 1.6000
21:59 5.1 3.6 90 1006.8 0.0000 1.6000
22:09 5.1 3.6 90 1006.6 0.0000 1.6000
22:20 5.1 3.6 90 1006.5 0.0000 1.6000
22:29 5.1 3.6 90 1006.4 0.0000 1.6000
22:39 5.1 3.6 90 1006.3 0.0000 1.6000
22:50 5.1 3.6 90 1006.2 0.0000 1.6000
23:00 5.1 3.6 90 1006.1 0.0000 1.6000
23:09 5.1 3.6 90 1006 0.0000 1.6000
23:19 5.1 3.6 90 1005.9 0.0000 1.6000
23:30 5.1 3.6 90 1005.8 0.0000 1.6000
23:40 5 3.5 90 1005.7 0.0000 1.6000
23:50 5 3.5 90 1005.7 0.0000 1.6000

DAY STATISTIC

2022-10-04
TEMPERATURE
AVERAGE
5.3
HIGH
6.3
13:45
LOW
4.4
00:08
PRESSURE
AVERAGE
1009.5
HIGH
1011.6
00:19
LOW
1005.7
23:40
DEWPOINT
AVERAGE
4.0
HIGH
5.1
11:34
LOW
3.2
00:08
HUMIDITY
AVERAGE
91
HIGH
93
08:12
LOW
90
15:36
PRECIPITATION
RAIN HOUR
0.4
RAIN DAY
1.6
TEMPERATURE (°C)
LOW
4.4
HIGH
6.3
AVERAGE
5.3
PRESSURE (hpa)
LOW
1005.7
HIGH
1011.6
AVERAGE
1009.5
DEVICE